Time;durP1;ratioP1;P1;durP2;ratioP2;P2;SDS_P1;SDS_P2;PMS_P1;PMS_P2;Temp;Humidity;BMP_temperature;BMP_pressure;BME280_temperature;BME280_humidity;BME280_pressure;Samples;Min_cycle;Max_cycle;Signal;HPM_P1;HPM_P2
2022/12/31 00:00:07;;;;;;;;;;;12.30;99.90;;;;;;5012520;28;19979;-62
2022/12/31 00:02:35;;;;;;;;;;;12.30;99.90;;;;;;5013170;28;19984;-62
2022/12/31 00:05:06;;;;;;;;;;;12.40;99.90;;;;;;5012908;28;19969;-62
2022/12/31 00:07:34;;;;;;;;;;;12.40;99.90;;;;;;5022800;28;20375;-62
2022/12/31 00:10:01;;;;;;;;;;;12.40;99.90;;;;;;5012578;28;19961;-62
2022/12/31 00:12:49;;;;;;;;;;;12.40;99.90;;;;;;5024742;28;20045;-61
2022/12/31 00:15:16;;;;;;;;;;;12.50;99.90;;;;;;5028424;28;20035;-61
2022/12/31 00:17:44;;;;;;;;;;;12.50;99.90;;;;;;5015404;28;20043;-62
2022/12/31 00:20:13;;;;;;;;;;;12.50;99.90;;;;;;5012366;28;19967;-62
2022/12/31 00:22:41;;;;;;;;;;;12.50;99.90;;;;;;5013333;28;19973;-62
2022/12/31 00:25:09;;;;;;;;;;;12.50;99.90;;;;;;5027564;28;19964;-62
2022/12/31 00:27:37;;;;;;;;;;;12.50;99.90;;;;;;5031298;28;19971;-62
2022/12/31 00:30:05;;;;;;;;;;;12.60;99.90;;;;;;5027162;28;19964;-61
2022/12/31 00:32:32;;;;;;;;;;;12.50;99.90;;;;;;5013703;28;20045;-62
2022/12/31 00:35:00;;;;;;;;;;;12.50;99.90;;;;;;5013075;28;20028;-62
2022/12/31 00:37:29;;;;;;;;;;;12.50;99.90;;;;;;5012610;28;20051;-61
2022/12/31 00:39:57;;;;;;;;;;;12.50;99.90;;;;;;5012340;28;20426;-61
2022/12/31 00:42:24;;;;;;;;;;;12.60;99.90;;;;;;5029309;28;20003;-62
2022/12/31 00:44:52;;;;;;;;;;;12.60;99.90;;;;;;5018744;28;19960;-62
2022/12/31 00:47:20;;;;;;;;;;;12.60;99.90;;;;;;5017130;28;20440;-62
2022/12/31 00:49:47;;;;;;;;;;;12.60;99.90;;;;;;5014084;28;19965;-61
2022/12/31 00:52:17;;;;;;;;;;;12.60;99.90;;;;;;5012547;28;20037;-62
2022/12/31 00:54:46;;;;;;;;;;;12.60;99.90;;;;;;5030766;28;19992;-62
2022/12/31 00:57:13;;;;;;;;;;;12.70;99.90;;;;;;5030958;28;20052;-62
2022/12/31 00:59:41;;;;;;;;;;;12.70;99.90;;;;;;5013417;28;19961;-61
2022/12/31 01:02:09;;;;;;;;;;;12.70;99.90;;;;;;5012608;28;20051;-62
2022/12/31 01:04:37;;;;;;;;;;;12.80;99.90;;;;;;5012486;28;20050;-62
2022/12/31 01:07:04;;;;;;;;;;;12.80;99.90;;;;;;5013354;28;20055;-62
2022/12/31 01:09:32;;;;;;;;;;;12.80;99.90;;;;;;5055472;22;19972;-70
2022/12/31 01:12:02;;;;;;;;;;;12.80;99.90;;;;;;5030535;28;20039;-70
2022/12/31 01:14:31;;;;;;;;;;;13.00;99.90;;;;;;5030482;28;19967;-71
2022/12/31 01:16:59;;;;;;;;;;;13.00;99.90;;;;;;5030653;28;20055;-71
2022/12/31 01:19:28;;;;;;;;;;;13.00;99.90;;;;;;5030583;28;19971;-71
2022/12/31 01:21:56;;;;;;;;;;;13.00;99.90;;;;;;5030372;28;19960;-71
2022/12/31 01:24:24;;;;;;;;;;;13.10;99.90;;;;;;5030458;28;20050;-71
2022/12/31 01:26:54;;;;;;;;;;;13.10;99.90;;;;;;5030631;28;20445;-69
2022/12/31 01:29:24;;;;;;;;;;;13.20;99.90;;;;;;5029010;28;20399;-68
2022/12/31 01:31:52;;;;;;;;;;;13.20;99.90;;;;;;5026826;28;20062;-70
2022/12/31 01:34:19;;;;;;;;;;;13.20;99.90;;;;;;5011406;28;19971;-69
2022/12/31 01:36:47;;;;;;;;;;;13.30;99.90;;;;;;5020288;28;19960;-69
2022/12/31 01:39:15;;;;;;;;;;;13.30;99.90;;;;;;5029892;28;20512;-71
2022/12/31 01:41:43;;;;;;;;;;;13.40;99.90;;;;;;5029200;28;19960;-72
2022/12/31 01:44:30;;;;;;;;;;;13.50;99.90;;;;;;5028673;28;20063;-71
2022/12/31 01:47:00;;;;;;;;;;;13.50;99.90;;;;;;5026569;28;20080;-72
2022/12/31 01:49:31;;;;;;;;;;;13.50;99.90;;;;;;5023485;28;20718;-71
2022/12/31 01:52:02;;;;;;;;;;;13.50;99.90;;;;;;5012011;28;19968;-73
2022/12/31 01:54:31;;;;;;;;;;;13.60;99.90;;;;;;5029031;28;20011;-72
2022/12/31 01:56:59;;;;;;;;;;;13.60;99.90;;;;;;5030103;28;20453;-73
2022/12/31 01:59:28;;;;;;;;;;;13.60;99.90;;;;;;5029621;28;19987;-71
2022/12/31 02:01:56;;;;;;;;;;;13.70;99.90;;;;;;5011244;28;20015;-72
2022/12/31 02:04:26;;;;;;;;;;;13.70;99.90;;;;;;5015174;28;20023;-71
2022/12/31 02:06:56;;;;;;;;;;;13.80;99.90;;;;;;5027861;28;20055;-72
2022/12/31 02:09:23;;;;;;;;;;;13.80;99.90;;;;;;5033910;28;20050;-72
2022/12/31 02:11:51;;;;;;;;;;;13.80;99.90;;;;;;5033325;28;19967;-72
2022/12/31 02:14:21;;;;;;;;;;;13.80;99.90;;;;;;5032982;28;20357;-72
2022/12/31 02:16:52;;;;;;;;;;;13.90;99.90;;;;;;5033774;28;19971;-72
2022/12/31 02:19:35;;;;;;;;;;;13.90;99.90;;;;;;5033951;28;20047;-71
2022/12/31 02:22:08;;;;;;;;;;;13.90;99.90;;;;;;5033830;28;20107;-70
2022/12/31 02:24:58;;;;;;;;;;;13.90;99.90;;;;;;5018748;28;19967;-69
2022/12/31 02:27:33;;;;;;;;;;;13.90;99.90;;;;;;5031125;28;20359;-70
2022/12/31 02:30:08;;;;;;;;;;;13.90;99.90;;;;;;5032373;28;19960;-69
2022/12/31 02:32:45;;;;;;;;;;;13.80;99.90;;;;;;5014994;28;20004;-69
2022/12/31 02:35:15;;;;;;;;;;;13.80;99.90;;;;;;5014752;28;20399;-69
2022/12/31 02:37:45;;;;;;;;;;;13.80;99.90;;;;;;5014655;28;20311;-69
2022/12/31 02:40:17;;;;;;;;;;;13.80;99.90;;;;;;5017504;28;19971;-69
2022/12/31 02:42:44;;;;;;;;;;;13.80;99.90;;;;;;5020134;28;20003;-71
2022/12/31 02:45:26;;;;;;;;;;;13.80;99.90;;;;;;5033340;28;19959;-69
2022/12/31 02:48:01;;;;;;;;;;;13.80;99.90;;;;;;5033345;28;20320;-69
2022/12/31 02:50:32;;;;;;;;;;;13.80;99.90;;;;;;5032873;28;20103;-69
2022/12/31 02:53:07;;;;;;;;;;;13.80;99.90;;;;;;5033248;28;20139;-70
2022/12/31 02:55:41;;;;;;;;;;;13.80;99.90;;;;;;5033420;28;19974;-70
2022/12/31 02:58:13;;;;;;;;;;;13.80;99.90;;;;;;5018141;28;20413;-70
2022/12/31 03:03:31;;;;;;;;;;;13.80;99.90;;;;;;5030264;28;20014;-70
2022/12/31 03:06:01;;;;;;;;;;;13.80;99.90;;;;;;5032405;28;19971;-71
2022/12/31 03:08:29;;;;;;;;;;;13.80;99.90;;;;;;5036056;28;19971;-70
2022/12/31 03:10:57;;;;;;;;;;;13.90;99.90;;;;;;5032103;28;19969;-72
2022/12/31 03:13:23;;;;;;;;;;;13.90;99.90;;;;;;5022740;28;19975;-68
2022/12/31 03:15:52;;;;;;;;;;;13.90;99.90;;;;;;5032484;28;19967;-68
2022/12/31 03:22:26;;;;;;;;;;;13.90;99.90;;;;;;5032861;28;20022;-68
2022/12/31 03:26:43;;;;;;;;;;;13.90;99.90;;;;;;5031130;28;20039;-69
2022/12/31 03:29:10;;;;;;;;;;;13.90;99.90;;;;;;5031537;28;20051;-69
2022/12/31 03:31:39;;;;;;;;;;;13.90;99.90;;;;;;5021886;28;19959;-70
2022/12/31 03:34:09;;;;;;;;;;;13.90;99.90;;;;;;5013113;28;21432;-69
2022/12/31 03:36:38;;;;;;;;;;;13.90;99.90;;;;;;5013326;28;19967;-69
2022/12/31 03:39:06;;;;;;;;;;;13.90;99.90;;;;;;5032033;28;19990;-68
2022/12/31 03:41:33;;;;;;;;;;;13.90;99.90;;;;;;5030748;28;19961;-69
2022/12/31 03:44:01;;;;;;;;;;;14.00;99.90;;;;;;5031899;28;20452;-70
2022/12/31 03:46:29;;;;;;;;;;;14.00;99.90;;;;;;5032285;28;19971;-70
2022/12/31 03:48:58;;;;;;;;;;;14.00;99.90;;;;;;5020407;28;19999;-72
2022/12/31 03:51:26;;;;;;;;;;;14.00;99.90;;;;;;5031528;28;19972;-70
2022/12/31 03:53:53;;;;;;;;;;;14.00;99.90;;;;;;5032253;28;19961;-71
2022/12/31 03:56:21;;;;;;;;;;;14.00;99.90;;;;;;5031475;28;20423;-71
2022/12/31 03:58:49;;;;;;;;;;;14.00;99.90;;;;;;5031456;28;19982;-71
2022/12/31 04:01:16;;;;;;;;;;;14.00;99.90;;;;;;5031566;28;20030;-70
2022/12/31 04:03:44;;;;;;;;;;;14.10;99.90;;;;;;5032054;28;19983;-70
2022/12/31 04:06:13;;;;;;;;;;;14.00;99.90;;;;;;5018384;28;20329;-70
2022/12/31 04:08:41;;;;;;;;;;;14.00;99.90;;;;;;5031007;28;20342;-71
2022/12/31 04:11:09;;;;;;;;;;;14.00;99.90;;;;;;5031025;28;20484;-71
2022/12/31 04:13:36;;;;;;;;;;;14.00;99.90;;;;;;5031706;28;19960;-70
2022/12/31 04:16:04;;;;;;;;;;;14.00;99.90;;;;;;5031705;28;19971;-68
2022/12/31 04:18:32;;;;;;;;;;;14.00;99.90;;;;;;5031662;28;20496;-70
2022/12/31 04:21:01;;;;;;;;;;;14.00;99.90;;;;;;5031171;28;20455;-70
2022/12/31 04:23:30;;;;;;;;;;;14.00;99.90;;;;;;5016393;28;19995;-69
2022/12/31 04:25:57;;;;;;;;;;;14.00;99.90;;;;;;5012940;28;20055;-69
2022/12/31 04:28:25;;;;;;;;;;;14.00;99.90;;;;;;5012377;28;19960;-70
2022/12/31 04:30:53;;;;;;;;;;;14.00;99.90;;;;;;5011833;28;19960;-70
2022/12/31 04:33:20;;;;;;;;;;;14.00;99.90;;;;;;5012784;28;20328;-70
2022/12/31 04:35:48;;;;;;;;;;;14.00;99.90;;;;;;5012285;28;20435;-70
2022/12/31 04:38:16;;;;;;;;;;;14.00;99.90;;;;;;5012284;28;20475;-70
2022/12/31 04:43:27;;;;;;;;;;;14.00;99.90;;;;;;5019633;28;19959;-71
2022/12/31 04:45:55;;;;;;;;;;;14.00;99.90;;;;;;5030831;28;20332;-71
2022/12/31 04:48:23;;;;;;;;;;;14.10;99.90;;;;;;5031446;28;20098;-70
2022/12/31 04:50:51;;;;;;;;;;;14.00;99.90;;;;;;5030441;28;19979;-70
2022/12/31 04:53:18;;;;;;;;;;;14.10;99.90;;;;;;5031345;28;20058;-70
2022/12/31 04:55:47;;;;;;;;;;;14.10;99.90;;;;;;5029523;28;20294;-71
2022/12/31 04:58:15;;;;;;;;;;;14.10;99.90;;;;;;5027183;28;19982;-70
2022/12/31 05:00:44;;;;;;;;;;;14.10;99.90;;;;;;5011137;28;20324;-70
2022/12/31 05:03:12;;;;;;;;;;;14.10;99.90;;;;;;5011792;28;20434;-69
2022/12/31 05:05:41;;;;;;;;;;;14.10;99.90;;;;;;5011667;28;19961;-69
2022/12/31 05:08:09;;;;;;;;;;;14.10;99.90;;;;;;5011606;28;19965;-69
2022/12/31 05:10:41;;;;;;;;;;;14.20;99.90;;;;;;5013164;28;20389;-70
2022/12/31 05:13:11;;;;;;;;;;;14.30;99.90;;;;;;5018876;28;19996;-71
2022/12/31 05:15:39;;;;;;;;;;;14.30;99.90;;;;;;5030360;28;20015;-70
2022/12/31 05:18:07;;;;;;;;;;;14.30;99.90;;;;;;5030651;28;20051;-70
2022/12/31 05:20:35;;;;;;;;;;;14.30;99.90;;;;;;5029993;28;19960;-69
2022/12/31 05:23:03;;;;;;;;;;;14.30;99.90;;;;;;5030694;28;19978;-69
2022/12/31 05:25:30;;;;;;;;;;;14.30;99.90;;;;;;5018886;28;20055;-68
2022/12/31 05:27:58;;;;;;;;;;;14.40;99.90;;;;;;5011735;28;19971;-71
2022/12/31 05:30:27;;;;;;;;;;;14.30;99.90;;;;;;5021130;28;19991;-70
2022/12/31 05:32:55;;;;;;;;;;;14.30;99.90;;;;;;5029401;28;19989;-70
2022/12/31 05:35:23;;;;;;;;;;;14.40;99.90;;;;;;5031235;28;19992;-71
2022/12/31 05:37:50;;;;;;;;;;;14.40;99.90;;;;;;5031320;28;19964;-70
2022/12/31 05:40:18;;;;;;;;;;;14.40;99.90;;;;;;5021601;28;19975;-69
2022/12/31 05:42:46;;;;;;;;;;;14.40;99.90;;;;;;5014498;28;20425;-70
2022/12/31 05:45:14;;;;;;;;;;;14.40;99.90;;;;;;5031399;28;19966;-71
2022/12/31 05:47:43;;;;;;;;;;;14.50;99.90;;;;;;5031353;28;19995;-71
2022/12/31 05:50:11;;;;;;;;;;;14.40;99.90;;;;;;5031176;28;20429;-70
2022/12/31 05:52:39;;;;;;;;;;;14.40;99.90;;;;;;5031646;28;20063;-69
2022/12/31 05:55:14;;;;;;;;;;;14.40;99.90;;;;;;5030838;28;19967;-69
2022/12/31 05:57:41;;;;;;;;;;;14.40;99.90;;;;;;5030819;28;20417;-70
2022/12/31 06:00:10;;;;;;;;;;;14.40;99.90;;;;;;5030811;28;19962;-70
2022/12/31 06:02:37;;;;;;;;;;;14.40;99.90;;;;;;5031466;28;19975;-69
2022/12/31 06:05:07;;;;;;;;;;;14.40;99.90;;;;;;5031304;28;19979;-70
2022/12/31 06:07:35;;;;;;;;;;;14.30;99.90;;;;;;5031097;28;19965;-67
2022/12/31 06:10:03;;;;;;;;;;;14.30;99.90;;;;;;5029555;28;19968;-70
2022/12/31 06:12:31;;;;;;;;;;;14.30;99.90;;;;;;5031183;28;20051;-67
2022/12/31 06:14:58;;;;;;;;;;;14.30;99.90;;;;;;5030987;28;20443;-70
2022/12/31 06:17:26;;;;;;;;;;;14.30;99.90;;;;;;5031203;28;20008;-70
2022/12/31 06:19:54;;;;;;;;;;;14.40;99.90;;;;;;5030644;28;20496;-71
2022/12/31 06:22:23;;;;;;;;;;;14.40;99.90;;;;;;5031139;28;19974;-69
2022/12/31 06:24:50;;;;;;;;;;;14.50;99.90;;;;;;5030396;28;19965;-70
2022/12/31 06:27:18;;;;;;;;;;;14.50;99.90;;;;;;5031017;28;19966;-69
2022/12/31 06:29:46;;;;;;;;;;;14.50;99.90;;;;;;5030460;28;20110;-70
2022/12/31 06:32:15;;;;;;;;;;;14.60;99.90;;;;;;5031079;28;20003;-70
2022/12/31 06:34:43;;;;;;;;;;;14.60;99.90;;;;;;5030926;28;19964;-70
2022/12/31 06:37:10;;;;;;;;;;;14.70;99.90;;;;;;5031080;28;20517;-70
2022/12/31 06:39:39;;;;;;;;;;;14.70;99.90;;;;;;5029666;28;20124;-69
2022/12/31 06:42:07;;;;;;;;;;;14.70;99.90;;;;;;5031208;28;20047;-70
2022/12/31 06:44:35;;;;;;;;;;;14.70;99.90;;;;;;5030113;28;19967;-69
2022/12/31 06:47:02;;;;;;;;;;;14.70;99.90;;;;;;5036116;28;19968;-70
2022/12/31 06:49:30;;;;;;;;;;;14.70;99.90;;;;;;5039884;28;20018;-69
2022/12/31 06:51:58;;;;;;;;;;;14.70;99.90;;;;;;5043745;28;20606;-70
2022/12/31 06:54:25;;;;;;;;;;;14.70;99.90;;;;;;5037817;28;19961;-70
2022/12/31 06:56:55;;;;;;;;;;;14.80;99.90;;;;;;5031188;28;19996;-70
2022/12/31 06:59:24;;;;;;;;;;;14.80;99.90;;;;;;5014706;28;20066;-70
2022/12/31 07:02:01;;;;;;;;;;;14.80;99.90;;;;;;5014091;28;20008;-69
2022/12/31 07:04:38;;;;;;;;;;;14.80;99.90;;;;;;5014630;28;19969;-70
2022/12/31 07:07:08;;;;;;;;;;;14.80;99.90;;;;;;5014411;28;19972;-69
2022/12/31 07:09:38;;;;;;;;;;;14.90;99.90;;;;;;5051934;22;20098;-64
2022/12/31 07:12:12;;;;;;;;;;;14.90;99.90;;;;;;5040194;28;20083;-67
2022/12/31 07:14:41;;;;;;;;;;;14.90;99.90;;;;;;5053418;28;20055;-66
2022/12/31 07:17:15;;;;;;;;;;;14.80;99.90;;;;;;5056403;28;20451;-65
2022/12/31 07:19:48;;;;;;;;;;;14.80;99.90;;;;;;5045372;28;20057;-66
2022/12/31 07:22:24;;;;;;;;;;;14.80;99.90;;;;;;5062476;28;19984;-66
2022/12/31 07:24:52;;;;;;;;;;;14.90;99.90;;;;;;5060167;28;20336;-66
2022/12/31 07:27:30;;;;;;;;;;;14.90;99.90;;;;;;5056395;28;20437;-66
2022/12/31 07:30:03;;;;;;;;;;;14.90;99.90;;;;;;5050242;28;20524;-66
2022/12/31 07:32:40;;;;;;;;;;;14.90;99.90;;;;;;5063743;28;20059;-67
2022/12/31 07:35:11;;;;;;;;;;;14.90;99.90;;;;;;5048870;28;19970;-66
2022/12/31 07:37:42;;;;;;;;;;;14.80;99.90;;;;;;5043139;28;20009;-66
2022/12/31 07:40:13;;;;;;;;;;;14.80;99.90;;;;;;5046214;28;19964;-67
2022/12/31 07:42:44;;;;;;;;;;;14.80;99.90;;;;;;5053729;28;19968;-66
2022/12/31 07:45:17;;;;;;;;;;;14.80;99.90;;;;;;5048115;28;19970;-66
2022/12/31 07:47:45;;;;;;;;;;;14.80;99.90;;;;;;5059061;28;19959;-66
2022/12/31 07:50:14;;;;;;;;;;;14.80;99.90;;;;;;5049674;28;20011;-66
2022/12/31 07:52:42;;;;;;;;;;;14.80;99.90;;;;;;5073279;28;19982;-66
2022/12/31 07:55:10;;;;;;;;;;;14.80;99.90;;;;;;5054049;28;20429;-66
2022/12/31 07:57:40;;;;;;;;;;;14.90;99.90;;;;;;5048479;28;20050;-67
2022/12/31 08:00:13;;;;;;;;;;;14.80;99.90;;;;;;5043772;28;20002;-67
2022/12/31 08:02:53;;;;;;;;;;;14.90;99.90;;;;;;5047033;28;20452;-66
2022/12/31 08:05:25;;;;;;;;;;;14.90;99.90;;;;;;5044221;28;20022;-66
2022/12/31 08:07:55;;;;;;;;;;;14.90;99.90;;;;;;5073157;28;19963;-67
2022/12/31 08:10:45;;;;;;;;;;;14.90;99.90;;;;;;5058948;28;19973;-66
2022/12/31 08:13:13;;;;;;;;;;;14.90;99.90;;;;;;5052986;28;20055;-67
2022/12/31 08:15:43;;;;;;;;;;;14.90;99.90;;;;;;5053250;28;19962;-66
2022/12/31 08:18:11;;;;;;;;;;;14.90;99.90;;;;;;5039945;28;19991;-66
2022/12/31 08:20:43;;;;;;;;;;;14.90;99.90;;;;;;5043251;28;20432;-66
2022/12/31 08:23:19;;;;;;;;;;;14.90;99.90;;;;;;5052879;28;19968;-67
2022/12/31 08:25:55;;;;;;;;;;;14.90;99.90;;;;;;5048330;28;19973;-67
2022/12/31 08:28:28;;;;;;;;;;;14.90;99.90;;;;;;5035830;28;20336;-68
2022/12/31 08:31:00;;;;;;;;;;;14.90;99.90;;;;;;5049859;28;19966;-66
2022/12/31 08:33:30;;;;;;;;;;;14.80;99.90;;;;;;5046197;28;19983;-66
2022/12/31 08:36:07;;;;;;;;;;;14.80;99.90;;;;;;5050458;28;19964;-66
2022/12/31 08:38:37;;;;;;;;;;;14.80;99.90;;;;;;5067135;28;20003;-65
2022/12/31 08:41:08;;;;;;;;;;;14.80;99.90;;;;;;5053043;28;20400;-66
2022/12/31 08:43:44;;;;;;;;;;;14.90;99.90;;;;;;5044720;28;20063;-66
2022/12/31 08:46:17;;;;;;;;;;;14.80;99.90;;;;;;5049324;28;19964;-67
2022/12/31 08:48:46;;;;;;;;;;;14.80;99.90;;;;;;5051939;28;19966;-67
2022/12/31 08:51:17;;;;;;;;;;;14.80;99.90;;;;;;5033190;28;20005;-66
2022/12/31 08:53:47;;;;;;;;;;;14.80;99.90;;;;;;5036041;28;20016;-67
2022/12/31 08:56:21;;;;;;;;;;;14.80;99.90;;;;;;5050221;28;20071;-66
2022/12/31 08:58:53;;;;;;;;;;;14.80;99.90;;;;;;5050283;28;20457;-66
2022/12/31 09:01:25;;;;;;;;;;;14.80;99.90;;;;;;5049033;28;20081;-66
2022/12/31 09:04:01;;;;;;;;;;;14.80;99.90;;;;;;5038502;28;19987;-66
2022/12/31 09:06:31;;;;;;;;;;;14.70;99.90;;;;;;5031619;28;19968;-66
2022/12/31 09:09:02;;;;;;;;;;;14.70;99.90;;;;;;5031030;28;20385;-66
2022/12/31 09:11:33;;;;;;;;;;;14.60;99.90;;;;;;5039990;28;19983;-66
2022/12/31 09:14:08;;;;;;;;;;;14.60;99.90;;;;;;5042293;28;20390;-66
2022/12/31 09:16:41;;;;;;;;;;;14.60;99.90;;;;;;5038362;28;19967;-65
2022/12/31 09:19:09;;;;;;;;;;;14.60;99.90;;;;;;5046655;28;19963;-66
2022/12/31 09:21:38;;;;;;;;;;;14.50;99.90;;;;;;5053506;28;20158;-66
2022/12/31 09:24:06;;;;;;;;;;;14.60;99.90;;;;;;5046256;28;19971;-67
2022/12/31 09:26:41;;;;;;;;;;;14.60;99.90;;;;;;5049125;28;19964;-66
2022/12/31 09:29:13;;;;;;;;;;;14.70;99.90;;;;;;5037593;28;20055;-66
2022/12/31 09:31:46;;;;;;;;;;;14.70;99.90;;;;;;5043988;28;20060;-66
2022/12/31 09:34:18;;;;;;;;;;;14.70;99.90;;;;;;5043451;28;19979;-66
2022/12/31 09:36:48;;;;;;;;;;;14.70;99.90;;;;;;5045107;28;20047;-66
2022/12/31 09:39:20;;;;;;;;;;;14.80;99.90;;;;;;5042026;28;19967;-67
2022/12/31 09:42:07;;;;;;;;;;;14.80;99.90;;;;;;5048872;28;19970;-65
2022/12/31 09:44:52;;;;;;;;;;;14.80;99.90;;;;;;5045494;28;19994;-64
2022/12/31 09:47:35;;;;;;;;;;;14.90;99.90;;;;;;5052559;28;19964;-64
2022/12/31 09:50:21;;;;;;;;;;;15.00;99.90;;;;;;5046721;28;19973;-64
2022/12/31 09:53:07;;;;;;;;;;;15.10;99.90;;;;;;5042744;28;19963;-64
2022/12/31 09:55:37;;;;;;;;;;;15.10;99.90;;;;;;5050727;28;19958;-65
2022/12/31 09:58:17;;;;;;;;;;;15.30;99.90;;;;;;5045877;28;19970;-65
2022/12/31 10:00:50;;;;;;;;;;;15.40;99.90;;;;;;5052608;28;20371;-65
2022/12/31 10:03:25;;;;;;;;;;;15.60;99.90;;;;;;5042919;28;20015;-65
2022/12/31 10:06:00;;;;;;;;;;;15.80;99.90;;;;;;5045072;28;20045;-65
2022/12/31 10:08:34;;;;;;;;;;;15.90;99.90;;;;;;5050617;28;19975;-65
2022/12/31 10:11:05;;;;;;;;;;;16.00;99.90;;;;;;5050852;28;20021;-65
2022/12/31 10:13:41;;;;;;;;;;;16.10;99.90;;;;;;5050511;28;20056;-65
2022/12/31 10:16:18;;;;;;;;;;;16.10;99.90;;;;;;5045293;28;19972;-65
2022/12/31 10:18:53;;;;;;;;;;;16.20;99.90;;;;;;5042834;28;19964;-66
2022/12/31 10:21:33;;;;;;;;;;;16.10;99.90;;;;;;5042259;28;19964;-65
2022/12/31 10:24:19;;;;;;;;;;;16.20;99.90;;;;;;5048613;28;19967;-65
2022/12/31 10:26:56;;;;;;;;;;;16.20;99.90;;;;;;5051802;28;19966;-66
2022/12/31 10:29:29;;;;;;;;;;;16.10;99.90;;;;;;5053935;28;19976;-65
2022/12/31 10:32:06;;;;;;;;;;;16.00;99.90;;;;;;5054292;28;20684;-65
2022/12/31 10:34:41;;;;;;;;;;;15.90;99.90;;;;;;5049569;28;19995;-65
2022/12/31 10:37:12;;;;;;;;;;;15.90;99.90;;;;;;5047711;28;20006;-65
2022/12/31 10:39:48;;;;;;;;;;;16.00;99.90;;;;;;5050781;28;19963;-65
2022/12/31 10:42:29;;;;;;;;;;;16.20;99.90;;;;;;5070550;28;20058;-65
2022/12/31 10:45:05;;;;;;;;;;;16.30;99.90;;;;;;5044511;28;20840;-65
2022/12/31 10:47:57;;;;;;;;;;;16.40;99.90;;;;;;5054087;28;19977;-66
2022/12/31 10:50:44;;;;;;;;;;;16.30;99.90;;;;;;5044751;28;20309;-65
2022/12/31 10:53:29;;;;;;;;;;;16.20;99.90;;;;;;5051146;28;19964;-65
2022/12/31 10:56:11;;;;;;;;;;;16.40;99.90;;;;;;5043902;28;19990;-65
2022/12/31 10:58:55;;;;;;;;;;;16.40;99.90;;;;;;5043950;28;19992;-65
2022/12/31 11:01:28;;;;;;;;;;;16.30;99.90;;;;;;5046105;28;20566;-65
2022/12/31 11:04:16;;;;;;;;;;;16.30;99.90;;;;;;5044928;28;20013;-65
2022/12/31 11:06:57;;;;;;;;;;;16.40;99.90;;;;;;5048651;28;19963;-65
2022/12/31 11:09:44;;;;;;;;;;;16.50;99.90;;;;;;5044290;28;19962;-65
2022/12/31 11:12:21;;;;;;;;;;;16.50;99.90;;;;;;5051686;28;19959;-64
2022/12/31 11:14:55;;;;;;;;;;;16.40;99.90;;;;;;5048328;28;19961;-65
2022/12/31 11:17:28;;;;;;;;;;;16.30;99.90;;;;;;5046843;28;20093;-65
2022/12/31 11:20:02;;;;;;;;;;;16.20;99.90;;;;;;5040423;28;19971;-65
2022/12/31 11:22:38;;;;;;;;;;;16.20;99.90;;;;;;5047783;28;20005;-65
2022/12/31 11:25:17;;;;;;;;;;;16.20;99.90;;;;;;5052297;28;19963;-65
2022/12/31 11:27:52;;;;;;;;;;;16.30;99.90;;;;;;5050657;28;20351;-66
2022/12/31 11:30:25;;;;;;;;;;;16.50;99.90;;;;;;5043993;28;19966;-65
2022/12/31 11:33:00;;;;;;;;;;;16.60;99.90;;;;;;5044543;28;20062;-65
2022/12/31 11:35:32;;;;;;;;;;;16.70;99.90;;;;;;5043270;28;19994;-65
2022/12/31 11:38:09;;;;;;;;;;;16.80;99.90;;;;;;5046125;28;19971;-65
2022/12/31 11:40:40;;;;;;;;;;;16.90;99.90;;;;;;5042573;28;19962;-65
2022/12/31 11:43:18;;;;;;;;;;;16.90;99.90;;;;;;5045942;28;19975;-66
2022/12/31 11:46:02;;;;;;;;;;;16.80;99.90;;;;;;5047531;28;19925;-67
2022/12/31 11:48:33;;;;;;;;;;;16.80;99.90;;;;;;5059175;28;19929;-67
2022/12/31 11:51:13;;;;;;;;;;;16.80;99.90;;;;;;5050146;28;19979;-67
2022/12/31 11:53:48;;;;;;;;;;;16.80;99.90;;;;;;5045638;28;20015;-67
2022/12/31 11:56:17;;;;;;;;;;;16.80;99.90;;;;;;5052672;28;20019;-67
2022/12/31 11:58:47;;;;;;;;;;;16.80;99.90;;;;;;5046558;28;19925;-67
2022/12/31 12:01:19;;;;;;;;;;;17.00;99.90;;;;;;5033697;28;20032;-67
2022/12/31 12:03:47;;;;;;;;;;;17.10;99.90;;;;;;5053185;28;19951;-67
2022/12/31 12:06:16;;;;;;;;;;;17.40;99.90;;;;;;5050520;28;20313;-68
2022/12/31 12:08:44;;;;;;;;;;;17.30;99.90;;;;;;5052656;28;20126;-67
2022/12/31 12:11:18;;;;;;;;;;;17.40;99.90;;;;;;5048903;28;19931;-66
2022/12/31 12:13:46;;;;;;;;;;;17.40;99.90;;;;;;5047420;28;20029;-65
2022/12/31 12:16:14;;;;;;;;;;;17.40;99.90;;;;;;5035292;28;19929;-65
2022/12/31 12:18:44;;;;;;;;;;;17.20;99.90;;;;;;5043791;28;19944;-67
2022/12/31 12:21:13;;;;;;;;;;;17.20;99.90;;;;;;5044038;28;20412;-69
2022/12/31 12:23:41;;;;;;;;;;;17.10;99.90;;;;;;5046636;28;19956;-68
2022/12/31 12:26:24;;;;;;;;;;;17.00;99.90;;;;;;5047077;28;20451;-68
2022/12/31 12:28:51;;;;;;;;;;;17.10;99.90;;;;;;5055608;28;20463;-64
2022/12/31 12:31:21;;;;;;;;;;;17.10;99.90;;;;;;5049554;28;19931;-64
2022/12/31 12:33:51;;;;;;;;;;;17.00;99.90;;;;;;5044680;28;19955;-65
2022/12/31 12:36:19;;;;;;;;;;;17.00;99.90;;;;;;5046311;28;20020;-64
2022/12/31 12:38:47;;;;;;;;;;;16.90;99.90;;;;;;5041196;28;20026;-63
2022/12/31 12:41:20;;;;;;;;;;;16.90;99.90;;;;;;5046793;28;19932;-63
2022/12/31 12:43:48;;;;;;;;;;;16.90;99.90;;;;;;5040053;28;20347;-64
2022/12/31 12:46:20;;;;;;;;;;;16.80;99.90;;;;;;5048616;28;19931;-64
2022/12/31 12:48:53;;;;;;;;;;;16.80;99.90;;;;;;5045725;28;19925;-65
2022/12/31 12:51:26;;;;;;;;;;;16.80;99.90;;;;;;5045314;28;19967;-64
2022/12/31 12:53:59;;;;;;;;;;;16.70;99.90;;;;;;5048050;28;19929;-64
2022/12/31 12:56:31;;;;;;;;;;;16.70;99.90;;;;;;5044419;28;19925;-64
2022/12/31 12:59:08;;;;;;;;;;;16.70;99.90;;;;;;5047362;28;19984;-64
2022/12/31 13:01:41;;;;;;;;;;;16.70;99.90;;;;;;5047861;28;19934;-64
2022/12/31 13:04:34;;;;;;;;;;;16.70;99.90;;;;;;5045526;28;19924;-64
2022/12/31 13:07:10;;;;;;;;;;;16.80;99.90;;;;;;5052591;28;19929;-64
2022/12/31 13:09:45;;;;;;;;;;;16.70;99.90;;;;;;5064867;22;20239;-64
2022/12/31 13:12:18;;;;;;;;;;;16.60;99.90;;;;;;5043347;28;20020;-65
2022/12/31 13:14:49;;;;;;;;;;;16.60;99.90;;;;;;5039787;28;19981;-64
2022/12/31 13:17:27;;;;;;;;;;;16.60;99.90;;;;;;5049204;28;20005;-64
2022/12/31 13:19:58;;;;;;;;;;;16.60;99.90;;;;;;5035659;28;19932;-63
2022/12/31 13:22:29;;;;;;;;;;;16.60;99.90;;;;;;5025133;28;20318;-64
2022/12/31 13:24:59;;;;;;;;;;;16.60;99.90;;;;;;5019272;28;19925;-63
2022/12/31 13:27:28;;;;;;;;;;;16.70;99.90;;;;;;5023988;28;19929;-63
2022/12/31 13:29:58;;;;;;;;;;;16.60;99.90;;;;;;5028294;28;19925;-63
2022/12/31 13:32:29;;;;;;;;;;;16.60;99.90;;;;;;5033129;28;19991;-63
2022/12/31 13:35:00;;;;;;;;;;;16.60;99.90;;;;;;5028526;28;19932;-63
2022/12/31 13:37:32;;;;;;;;;;;16.60;99.90;;;;;;5021663;28;20024;-63
2022/12/31 13:40:02;;;;;;;;;;;16.60;99.90;;;;;;5021159;28;19931;-64
2022/12/31 13:42:35;;;;;;;;;;;16.60;99.90;;;;;;5020754;28;20395;-64
2022/12/31 13:45:03;;;;;;;;;;;16.60;99.90;;;;;;5024897;28;20862;-63
2022/12/31 13:47:33;;;;;;;;;;;16.60;99.90;;;;;;5032118;28;19983;-63
2022/12/31 13:50:04;;;;;;;;;;;16.60;99.90;;;;;;5024554;28;19931;-63
2022/12/31 13:52:44;;;;;;;;;;;16.50;99.90;;;;;;5029874;28;19951;-64
2022/12/31 13:55:15;;;;;;;;;;;16.50;99.90;;;;;;5016923;28;21555;-64
2022/12/31 13:57:45;;;;;;;;;;;16.40;99.90;;;;;;5027237;28;19935;-63
2022/12/31 14:00:18;;;;;;;;;;;16.40;99.90;;;;;;5029607;28;20480;-63
2022/12/31 14:02:50;;;;;;;;;;;16.40;99.90;;;;;;5036456;28;20023;-64
2022/12/31 14:05:19;;;;;;;;;;;16.40;99.90;;;;;;5029915;28;19928;-64
2022/12/31 14:07:51;;;;;;;;;;;16.40;99.90;;;;;;5033490;28;20534;-63
2022/12/31 14:10:21;;;;;;;;;;;16.30;99.90;;;;;;5024742;28;19925;-63
2022/12/31 14:12:53;;;;;;;;;;;16.30;99.90;;;;;;5034324;28;19925;-64
2022/12/31 14:15:23;;;;;;;;;;;16.20;99.90;;;;;;5024168;28;19925;-63
2022/12/31 14:17:54;;;;;;;;;;;16.20;99.90;;;;;;5027058;28;20016;-64
2022/12/31 14:20:27;;;;;;;;;;;16.20;99.90;;;;;;5031746;28;20309;-63
2022/12/31 14:23:01;;;;;;;;;;;16.20;99.90;;;;;;5034279;28;19931;-63
2022/12/31 14:25:33;;;;;;;;;;;16.10;99.90;;;;;;5027715;28;19925;-64
2022/12/31 14:28:01;;;;;;;;;;;16.10;99.90;;;;;;5029870;28;20350;-63
2022/12/31 14:30:30;;;;;;;;;;;16.10;99.90;;;;;;5024613;28;20034;-64
2022/12/31 14:33:08;;;;;;;;;;;16.10;99.90;;;;;;5031015;28;19943;-63
2022/12/31 14:35:50;;;;;;;;;;;16.00;99.90;;;;;;5031247;28;19929;-63
2022/12/31 14:38:26;;;;;;;;;;;16.00;99.90;;;;;;5036909;28;19964;-64
2022/12/31 14:41:00;;;;;;;;;;;16.00;99.90;;;;;;5030504;28;19933;-64
2022/12/31 14:43:34;;;;;;;;;;;16.00;99.90;;;;;;5041491;28;20366;-64
2022/12/31 14:46:09;;;;;;;;;;;15.90;99.90;;;;;;5027489;28;20020;-64
2022/12/31 14:48:43;;;;;;;;;;;16.00;99.90;;;;;;5035490;28;19932;-64
2022/12/31 14:51:11;;;;;;;;;;;15.90;99.90;;;;;;5025051;28;19925;-64